createdAt,value
2018-05-03T00:00:16.904Z,5.20
2018-05-03T00:02:44.402Z,4.87
2018-05-03T00:05:12.174Z,4.80
2018-05-03T00:07:39.677Z,4.80
2018-05-03T00:10:07.387Z,4.53
2018-05-03T00:12:35.162Z,5.13
2018-05-03T00:15:03.881Z,5.37
2018-05-03T00:17:31.386Z,5.63
2018-05-03T00:19:59.069Z,5.30
2018-05-03T00:22:26.603Z,5.20
2018-05-03T00:24:54.254Z,4.90
2018-05-03T00:27:21.757Z,5.47
2018-05-03T00:29:49.302Z,5.83
2018-05-03T00:32:16.965Z,5.57
2018-05-03T00:34:44.726Z,4.97
2018-05-03T00:37:12.229Z,5.07
2018-05-03T00:39:40.576Z,5.37
2018-05-03T00:42:08.342Z,5.03
2018-05-03T00:44:35.859Z,5.37
2018-05-03T00:47:03.546Z,4.70
2018-05-03T00:49:31.319Z,5.30
2018-05-03T00:51:58.813Z,5.60
2018-05-03T00:54:38.201Z,5.63
2018-05-03T00:57:05.990Z,5.33
2018-05-03T00:59:33.700Z,5.37
2018-05-03T01:02:01.494Z,5.43
2018-05-03T01:04:29.017Z,6.43
2018-05-03T01:06:56.710Z,5.53
2018-05-03T01:09:24.236Z,5.30
2018-05-03T01:11:51.841Z,5.50
2018-05-03T01:14:19.349Z,5.00
2018-05-03T01:16:46.855Z,5.43
2018-05-03T01:19:14.381Z,4.77
2018-05-03T01:21:42.677Z,6.10
2018-05-03T01:24:10.194Z,6.10
2018-05-03T01:26:37.866Z,5.80
2018-05-03T01:29:06.017Z,6.13
2018-05-03T01:31:33.736Z,6.13
2018-05-03T01:34:01.252Z,6.23
2018-05-03T01:36:31.694Z,5.83
2018-05-03T01:38:59.481Z,5.37
2018-05-03T01:41:26.987Z,5.33
2018-05-03T01:43:54.698Z,5.80
2018-05-03T01:46:22.205Z,6.10
2018-05-03T01:48:49.714Z,6.00
2018-05-03T01:51:17.367Z,5.90
2018-05-03T01:53:45.138Z,5.40
2018-05-03T01:56:12.918Z,5.60
2018-05-03T01:58:40.422Z,5.90
2018-05-03T02:01:08.132Z,6.10
2018-05-03T02:03:35.901Z,6.30
2018-05-03T02:06:03.429Z,5.97
2018-05-03T02:08:31.109Z,6.20
2018-05-03T02:10:58.625Z,6.23
2018-05-03T02:13:26.334Z,5.67
2018-05-03T02:15:53.837Z,6.40
2018-05-03T02:18:21.553Z,8.03
2018-05-03T02:20:49.070Z,6.30
2018-05-03T02:23:17.410Z,6.87
2018-05-03T02:25:44.901Z,6.30
2018-05-03T02:28:12.580Z,7.63
2018-05-03T02:30:40.369Z,6.17
2018-05-03T02:33:07.873Z,6.13
2018-05-03T02:35:35.589Z,6.70
2018-05-03T02:38:03.106Z,6.80
2018-05-03T02:40:30.780Z,6.73
2018-05-03T02:42:58.576Z,6.67
2018-05-03T02:45:26.095Z,7.47
2018-05-03T02:47:53.594Z,7.13
2018-05-03T02:50:21.223Z,7.50
2018-05-03T02:52:49.013Z,7.83
2018-05-03T02:55:16.525Z,7.47
2018-05-03T02:58:01.570Z,6.70
2018-05-03T03:00:46.804Z,6.40
2018-05-03T03:03:32.032Z,6.53
2018-05-03T03:06:11.545Z,6.53
2018-05-03T03:09:06.403Z,6.67
2018-05-03T03:15:03.698Z,7.47
2018-05-03T03:17:48.881Z,7.20
2018-05-03T03:20:54.405Z,7.90
2018-05-03T03:23:39.449Z,7.70
2018-05-03T03:29:43.553Z,7.70
2018-05-03T03:32:22.880Z,7.93
2018-05-03T03:34:57.969Z,7.93
2018-05-03T03:40:46.870Z,7.40
2018-05-03T03:43:38.968Z,8.60
2018-05-03T03:46:06.669Z,8.60
2018-05-03T03:48:34.439Z,8.30
2018-05-03T03:51:02.026Z,9.50
2018-05-03T03:53:29.624Z,7.60
2018-05-03T03:55:57.423Z,8.60
2018-05-03T03:58:24.934Z,8.50
2018-05-03T04:00:52.640Z,8.80
2018-05-03T04:03:20.150Z,9.07
2018-05-03T04:05:48.275Z,9.50
2018-05-03T04:08:15.897Z,9.20
2018-05-03T04:10:43.397Z,9.57
2018-05-03T04:13:10.911Z,9.20
2018-05-03T04:15:38.576Z,10.30
2018-05-03T04:18:17.997Z,9.33
2018-05-03T04:21:09.201Z,10.70
2018-05-03T04:23:48.898Z,11.87
2018-05-03T04:26:16.406Z,11.03
2018-05-03T04:28:43.923Z,10.20
2018-05-03T04:31:11.433Z,11.27
2018-05-03T04:33:39.002Z,11.30
2018-05-03T04:36:06.539Z,11.60
2018-05-03T04:38:34.426Z,12.20
2018-05-03T04:41:02.009Z,11.17
2018-05-03T04:43:29.775Z,11.80
2018-05-03T04:45:57.286Z,11.63
2018-05-03T04:48:24.968Z,10.90
2018-05-03T04:50:52.493Z,11.87
2018-05-03T04:53:20.213Z,11.57
2018-05-03T04:55:47.982Z,11.10
2018-05-03T04:58:15.487Z,9.97
2018-05-03T05:00:43.123Z,12.83
2018-05-03T05:03:10.634Z,11.57
2018-05-03T05:05:38.420Z,12.00
2018-05-03T05:08:05.933Z,11.00
2018-05-03T05:10:33.479Z,13.20
2018-05-03T05:13:01.094Z,12.70
2018-05-03T05:15:28.734Z,12.97
2018-05-03T05:17:56.339Z,11.73
2018-05-03T05:20:23.822Z,12.20
2018-05-03T05:22:51.329Z,9.87
2018-05-03T05:25:18.837Z,6.83
2018-05-03T05:27:47.106Z,4.90
2018-05-03T05:30:14.821Z,3.73
2018-05-03T05:32:42.602Z,3.03
2018-05-03T05:35:10.123Z,3.87
2018-05-03T05:37:37.810Z,2.57
2018-05-03T05:40:05.752Z,3.30
2018-05-03T05:42:33.253Z,2.23
2018-05-03T05:45:00.764Z,1.90
2018-05-03T05:47:28.272Z,3.10
2018-05-03T05:49:55.783Z,2.20
2018-05-03T05:52:23.465Z,2.70
2018-05-03T05:54:51.491Z,2.20
2018-05-03T05:57:19.102Z,1.60
2018-05-03T05:59:46.774Z,2.73
2018-05-03T06:02:14.293Z,2.40
2018-05-03T06:04:41.811Z,2.30
2018-05-03T06:07:10.098Z,2.20
2018-05-03T06:09:37.775Z,1.77
2018-05-03T06:12:05.283Z,1.43
2018-05-03T06:14:32.786Z,2.70
2018-05-03T06:17:00.454Z,2.13
2018-05-03T06:19:27.994Z,2.57
2018-05-03T06:21:55.737Z,2.57
2018-05-03T06:24:23.242Z,2.30
2018-05-03T06:26:50.926Z,1.83
2018-05-03T06:29:18.445Z,2.27
2018-05-03T06:31:45.958Z,2.60
2018-05-03T06:34:13.483Z,1.67
2018-05-03T06:36:40.977Z,2.03
2018-05-03T06:39:08.490Z,2.43
2018-05-03T06:41:35.997Z,2.27
2018-05-03T06:44:03.515Z,1.90
2018-05-03T06:46:31.169Z,2.60
2018-05-03T06:48:58.666Z,2.47
2018-05-03T06:51:26.187Z,1.80
2018-05-03T06:53:53.727Z,2.80
2018-05-03T06:56:21.302Z,2.70
2018-05-03T06:58:48.850Z,2.77
2018-05-03T07:01:16.526Z,2.97
2018-05-03T07:03:44.414Z,1.97
2018-05-03T07:06:12.046Z,1.90
2018-05-03T07:08:39.860Z,2.83
2018-05-03T07:11:07.427Z,1.97
2018-05-03T07:13:34.874Z,2.37
2018-05-03T07:16:02.517Z,2.07
2018-05-03T07:18:30.296Z,2.10
2018-05-03T07:20:57.915Z,2.30
2018-05-03T07:23:25.406Z,2.33
2018-05-03T07:25:52.931Z,2.27
2018-05-03T07:28:20.439Z,1.80
2018-05-03T07:30:47.964Z,1.90
2018-05-03T07:33:15.647Z,2.30
2018-05-03T07:35:44.662Z,2.20
2018-05-03T07:38:12.389Z,1.83
2018-05-03T07:40:40.173Z,3.13
2018-05-03T07:43:07.670Z,2.50
2018-05-03T07:45:35.377Z,2.30
2018-05-03T07:48:03.028Z,2.23
2018-05-03T07:50:30.501Z,2.70
2018-05-03T07:52:58.120Z,2.10
2018-05-03T07:55:25.818Z,2.93
2018-05-03T07:57:53.446Z,2.13
2018-05-03T08:00:21.030Z,2.50
2018-05-03T08:02:48.543Z,3.10
2018-05-03T08:05:16.248Z,2.53
2018-05-03T08:07:44.021Z,2.47
2018-05-03T08:10:11.530Z,1.60
2018-05-03T08:12:39.320Z,2.40
2018-05-03T08:15:06.944Z,1.87
2018-05-03T08:17:34.450Z,3.00
2018-05-03T08:20:02.045Z,2.90
2018-05-03T08:22:29.485Z,2.10
2018-05-03T08:24:56.974Z,2.90
2018-05-03T08:27:25.273Z,2.50
2018-05-03T08:29:52.774Z,3.33
2018-05-03T08:32:20.277Z,3.00
2018-05-03T08:34:47.782Z,3.93
2018-05-03T08:37:15.345Z,2.90
2018-05-03T08:39:42.871Z,2.07
2018-05-03T08:42:10.374Z,2.10
2018-05-03T08:44:38.003Z,2.80
2018-05-03T08:47:05.511Z,2.60
2018-05-03T08:49:33.026Z,2.60
2018-05-03T08:52:00.535Z,2.60
2018-05-03T08:54:28.818Z,2.53
2018-05-03T08:56:56.322Z,3.00
2018-05-03T08:59:23.833Z,2.40
2018-05-03T09:01:51.490Z,2.27
2018-05-03T09:04:19.198Z,2.60
2018-05-03T09:06:46.712Z,2.57
2018-05-03T09:09:14.414Z,2.10
2018-05-03T09:11:41.951Z,2.00
2018-05-03T09:14:09.613Z,1.93
2018-05-03T09:16:37.397Z,1.90
2018-05-03T09:19:05.162Z,2.20
2018-05-03T09:21:32.677Z,2.00
2018-05-03T09:24:00.357Z,2.03
2018-05-03T09:26:28.144Z,2.20
2018-05-03T09:28:55.911Z,2.57
2018-05-03T09:31:23.409Z,2.43
2018-05-03T09:33:51.145Z,1.80
2018-05-03T09:36:18.647Z,2.00
2018-05-03T09:38:46.323Z,2.50
2018-05-03T09:41:14.114Z,2.50
2018-05-03T09:43:41.634Z,3.10
2018-05-03T09:46:09.301Z,2.90
2018-05-03T09:48:36.806Z,1.93
2018-05-03T09:51:04.329Z,2.97
2018-05-03T09:53:32.018Z,2.03
2018-05-03T09:55:59.749Z,2.50
2018-05-03T09:58:27.534Z,1.70
2018-05-03T10:00:55.043Z,2.27
2018-05-03T10:03:22.554Z,1.97
2018-05-03T10:05:50.214Z,2.10
2018-05-03T10:08:17.973Z,2.33
2018-05-03T10:10:45.496Z,2.67
2018-05-03T10:13:13.075Z,2.27
2018-05-03T10:15:40.624Z,2.37
2018-05-03T10:18:08.236Z,2.83
2018-05-03T10:20:35.877Z,3.00
2018-05-03T10:23:03.392Z,3.00
2018-05-03T10:25:30.898Z,2.83
2018-05-03T10:27:58.556Z,3.37
2018-05-03T10:30:26.058Z,2.30
2018-05-03T10:32:53.774Z,3.20
2018-05-03T10:35:21.306Z,2.03
2018-05-03T10:37:48.988Z,1.97
2018-05-03T10:40:16.508Z,1.90
2018-05-03T10:42:44.007Z,2.03
2018-05-03T10:45:11.662Z,1.77
2018-05-03T10:47:39.172Z,2.10
2018-05-03T10:50:06.737Z,2.03
2018-05-03T10:52:35.024Z,1.73
2018-05-03T10:55:02.741Z,1.93
2018-05-03T10:57:30.296Z,1.80
2018-05-03T10:59:57.769Z,2.10
2018-05-03T11:02:25.393Z,1.97
2018-05-03T11:04:53.163Z,2.23
2018-05-03T11:07:20.679Z,2.33
2018-05-03T11:09:48.189Z,2.30
2018-05-03T11:12:15.698Z,2.20
2018-05-03T11:14:43.210Z,2.30
2018-05-03T11:17:11.543Z,1.70
2018-05-03T11:19:39.105Z,2.03
2018-05-03T11:22:06.605Z,2.00
2018-05-03T11:24:34.155Z,2.40
2018-05-03T11:27:01.837Z,2.23
2018-05-03T11:29:29.350Z,1.93
2018-05-03T11:31:57.021Z,2.30
2018-05-03T11:34:24.785Z,1.50
2018-05-03T11:36:52.305Z,2.23
2018-05-03T11:39:19.812Z,2.60
2018-05-03T11:41:47.462Z,1.87
2018-05-03T11:44:14.983Z,3.47
2018-05-03T11:46:42.682Z,1.67
2018-05-03T11:49:10.193Z,1.30
2018-05-03T11:51:37.917Z,1.80
2018-05-03T11:54:05.438Z,1.83
2018-05-03T11:56:32.938Z,1.80
2018-05-03T11:59:00.449Z,2.30
2018-05-03T12:01:28.034Z,1.83
2018-05-03T12:03:56.582Z,2.10
2018-05-03T12:06:24.091Z,1.73
2018-05-03T12:08:51.636Z,2.30
2018-05-03T12:11:19.145Z,1.50
2018-05-03T12:13:46.816Z,2.40
2018-05-03T12:16:14.324Z,2.37
2018-05-03T12:18:42.631Z,1.70
2018-05-03T12:21:10.147Z,1.50
2018-05-03T12:23:37.649Z,2.03
2018-05-03T12:26:05.154Z,1.97
2018-05-03T12:28:32.821Z,2.30
2018-05-03T12:31:00.587Z,2.00
2018-05-03T12:33:28.361Z,1.90
2018-05-03T12:35:55.858Z,1.80
2018-05-03T12:38:23.591Z,1.87
2018-05-03T12:40:51.110Z,1.93
2018-05-03T12:43:18.798Z,2.50
2018-05-03T12:45:46.734Z,2.00
2018-05-03T12:48:14.433Z,1.77
2018-05-03T12:50:42.081Z,2.03
2018-05-03T12:53:09.583Z,2.13
2018-05-03T12:55:37.931Z,1.53
2018-05-03T12:58:05.433Z,1.67
2018-05-03T13:00:32.949Z,2.13
2018-05-03T13:03:00.552Z,1.70
2018-05-03T13:05:28.159Z,2.03
2018-05-03T13:07:55.991Z,2.17
2018-05-03T13:10:23.578Z,2.00
2018-05-03T13:12:51.074Z,2.27
2018-05-03T13:15:18.578Z,1.97
2018-05-03T13:17:46.123Z,1.77
2018-05-03T13:20:13.755Z,2.80
2018-05-03T13:22:41.478Z,1.90
2018-05-03T13:25:09.234Z,2.00
2018-05-03T13:27:36.733Z,3.07
2018-05-03T13:30:04.457Z,2.10
2018-05-03T13:32:31.954Z,2.40
2018-05-03T13:34:59.457Z,1.70
2018-05-03T13:37:27.130Z,2.33
2018-05-03T13:39:54.630Z,1.73
2018-05-03T13:42:22.142Z,2.13
2018-05-03T13:44:50.729Z,1.60
2018-05-03T13:47:18.502Z,1.60
2018-05-03T13:49:46.259Z,2.03
2018-05-03T13:52:13.766Z,1.77
2018-05-03T13:54:41.260Z,2.10
2018-05-03T13:57:08.934Z,2.47
2018-05-03T13:59:36.698Z,1.80
2018-05-03T14:02:04.205Z,1.77
2018-05-03T14:04:31.918Z,2.00
2018-05-03T14:06:59.509Z,1.77
2018-05-03T14:09:26.931Z,2.40
2018-05-03T14:11:54.443Z,1.83
2018-05-03T14:14:22.706Z,3.07
2018-05-03T14:16:50.218Z,2.60
2018-05-03T14:19:17.902Z,1.90
2018-05-03T14:21:45.646Z,2.20
2018-05-03T14:24:13.150Z,1.60
2018-05-03T14:26:40.881Z,1.93
2018-05-03T14:29:08.401Z,2.00
2018-05-03T14:31:36.090Z,3.40
2018-05-03T14:34:03.845Z,2.20
2018-05-03T14:36:31.358Z,2.40
2018-05-03T14:38:59.112Z,2.40
2018-05-03T14:41:26.620Z,2.30
2018-05-03T14:43:54.254Z,2.40
2018-05-03T14:46:22.566Z,2.40
2018-05-03T14:48:50.086Z,2.37
2018-05-03T14:51:17.599Z,3.00
2018-05-03T14:53:45.113Z,2.67
2018-05-03T14:56:12.619Z,2.40
2018-05-03T14:58:40.238Z,2.40
2018-05-03T15:01:07.751Z,1.93
2018-05-03T15:03:35.254Z,1.90
2018-05-03T15:06:02.941Z,2.13
2018-05-03T15:08:30.452Z,1.87
2018-05-03T15:10:57.958Z,1.50
2018-05-03T15:13:25.465Z,2.90
2018-05-03T15:15:53.995Z,2.17
2018-05-03T15:18:21.552Z,2.53
2018-05-03T15:20:49.085Z,2.60
2018-05-03T15:23:16.587Z,2.00
2018-05-03T15:25:44.110Z,2.07
2018-05-03T15:28:11.613Z,2.30
2018-05-03T15:30:39.311Z,2.10
2018-05-03T15:33:06.809Z,2.47
2018-05-03T15:35:34.582Z,2.10
2018-05-03T15:38:02.082Z,2.53
2018-05-03T15:40:30.442Z,3.00
2018-05-03T15:42:57.993Z,2.53
2018-05-03T15:45:26.648Z,2.73
2018-05-03T15:47:54.520Z,1.80
2018-05-03T15:50:22.035Z,2.50
2018-05-03T15:52:49.834Z,2.00
2018-05-03T15:55:17.369Z,2.07
2018-05-03T15:57:44.988Z,2.10
2018-05-03T16:00:12.494Z,2.30
2018-05-03T16:02:40.149Z,2.60
2018-05-03T16:05:07.739Z,2.17
2018-05-03T16:07:35.296Z,2.23
2018-05-03T16:10:03.129Z,2.50
2018-05-03T16:12:30.631Z,2.33
2018-05-03T16:14:58.126Z,1.90
2018-05-03T16:17:25.837Z,2.90
2018-05-03T16:19:53.365Z,1.70
2018-05-03T16:22:21.150Z,3.30
2018-05-03T16:24:48.686Z,3.00
2018-05-03T16:27:16.240Z,2.40
2018-05-03T16:29:44.513Z,2.20
2018-05-03T16:32:12.026Z,4.83
2018-05-03T16:34:39.641Z,3.50
2018-05-03T16:37:07.169Z,2.53
2018-05-03T16:39:34.675Z,2.83
2018-05-03T16:42:02.198Z,2.63
2018-05-03T16:44:29.801Z,2.47
2018-05-03T16:46:57.318Z,2.33
2018-05-03T16:49:25.171Z,2.50
2018-05-03T16:51:53.442Z,2.67
2018-05-03T16:54:20.937Z,1.80
2018-05-03T16:56:48.614Z,2.23
2018-05-03T16:59:16.387Z,2.63
2018-05-03T17:01:43.891Z,1.70
2018-05-03T17:04:11.402Z,2.20
2018-05-03T17:06:38.909Z,2.03
2018-05-03T17:09:06.422Z,1.30
2018-05-03T17:11:34.044Z,2.13
2018-05-03T17:14:01.751Z,2.10
2018-05-03T17:16:29.260Z,2.50
2018-05-03T17:18:57.130Z,2.00
2018-05-03T17:21:24.722Z,2.17
2018-05-03T17:23:52.235Z,1.97
2018-05-03T17:26:19.758Z,1.60
2018-05-03T17:28:47.400Z,2.37
2018-05-03T17:31:14.911Z,1.97
2018-05-03T17:33:42.631Z,1.70
2018-05-03T17:36:10.247Z,2.10
2018-05-03T17:38:37.803Z,2.03
2018-05-03T17:41:05.306Z,2.03
2018-05-03T17:43:32.823Z,2.10
2018-05-03T17:46:00.339Z,1.93
2018-05-03T17:48:28.623Z,2.00
2018-05-03T17:50:56.313Z,2.00
2018-05-03T17:53:23.822Z,2.10
2018-05-03T17:55:52.438Z,1.63
2018-05-03T17:58:19.975Z,2.43
2018-05-03T18:00:47.680Z,1.60
2018-05-03T18:03:15.191Z,1.63
2018-05-03T18:05:42.892Z,1.67
2018-05-03T18:08:10.397Z,1.60
2018-05-03T18:10:37.894Z,1.60
2018-05-03T18:13:05.427Z,2.07
2018-05-03T18:15:33.915Z,1.50
2018-05-03T18:18:01.438Z,1.40
2018-05-03T18:20:28.933Z,1.33
2018-05-03T18:22:56.638Z,2.03
2018-05-03T18:25:24.701Z,3.33
2018-05-03T18:27:52.217Z,2.80
2018-05-03T18:30:19.744Z,3.47
2018-05-03T18:32:47.464Z,1.57
2018-05-03T18:35:15.196Z,2.60
2018-05-03T18:37:42.714Z,2.40
2018-05-03T18:40:10.391Z,2.20
2018-05-03T18:42:38.541Z,2.30
2018-05-03T18:45:06.199Z,2.23
2018-05-03T18:47:33.807Z,2.00
2018-05-03T18:50:01.310Z,2.50
2018-05-03T18:52:28.807Z,2.23
2018-05-03T18:54:56.352Z,2.80
2018-05-03T18:57:23.865Z,2.17
2018-05-03T18:59:51.382Z,2.90
2018-05-03T19:02:19.001Z,2.30
2018-05-03T19:04:46.797Z,2.00
2018-05-03T19:07:14.311Z,1.87
2018-05-03T19:09:41.855Z,1.77
2018-05-03T19:12:10.126Z,2.17
2018-05-03T19:14:37.879Z,2.00
2018-05-03T19:17:05.400Z,3.33
2018-05-03T19:19:32.904Z,2.70
2018-05-03T19:22:01.209Z,2.50
2018-05-03T19:24:28.918Z,2.63
2018-05-03T19:26:56.432Z,2.80
2018-05-03T19:29:24.224Z,2.30
2018-05-03T19:31:51.845Z,1.93
2018-05-03T19:34:19.524Z,2.07
2018-05-03T19:36:47.111Z,2.57
2018-05-03T19:39:14.633Z,2.23
2018-05-03T19:41:42.141Z,2.27
2018-05-03T19:44:09.676Z,2.33
2018-05-03T19:46:37.185Z,2.00
2018-05-03T19:49:04.713Z,2.40
2018-05-03T19:51:32.247Z,2.40
2018-05-03T19:54:00.531Z,2.53
2018-05-03T19:56:28.026Z,2.57
2018-05-03T19:58:55.548Z,2.30
2018-05-03T20:01:23.207Z,4.00
2018-05-03T20:03:51.035Z,19.37
2018-05-03T20:06:18.693Z,2.90
2018-05-03T20:08:46.206Z,2.37
2018-05-03T20:11:13.957Z,2.87
2018-05-03T20:13:41.471Z,2.43
2018-05-03T20:16:10.131Z,2.10
2018-05-03T20:18:37.693Z,1.93
2018-05-03T20:21:06.228Z,2.97
2018-05-03T20:23:33.733Z,2.97
2018-05-03T20:26:01.486Z,2.60
2018-05-03T20:28:28.985Z,2.00
2018-05-03T20:30:56.644Z,2.17
2018-05-03T20:33:24.147Z,2.37
2018-05-03T20:35:52.459Z,2.53
2018-05-03T20:38:19.976Z,3.97
2018-05-03T20:40:47.806Z,3.63
2018-05-03T20:43:15.539Z,3.30
2018-05-03T20:45:43.255Z,9.77
2018-05-03T20:48:10.756Z,4.27
2018-05-03T20:50:39.167Z,4.30
2018-05-03T20:53:06.862Z,2.30
2018-05-03T20:55:34.379Z,3.13
2018-05-03T20:58:01.886Z,2.67
2018-05-03T21:00:29.394Z,3.07
2018-05-03T21:02:56.897Z,2.97
2018-05-03T21:05:25.283Z,4.03
2018-05-03T21:07:52.820Z,2.77
2018-05-03T21:10:20.455Z,4.50
2018-05-03T21:12:48.067Z,3.37
2018-05-03T21:15:15.798Z,4.67
2018-05-03T21:17:43.312Z,5.13
2018-05-03T21:20:10.858Z,8.73
2018-05-03T21:22:39.450Z,4.43
2018-05-03T21:25:07.166Z,5.97
2018-05-03T21:27:34.677Z,7.80
2018-05-03T21:30:02.186Z,3.77
2018-05-03T21:32:30.347Z,3.07
2018-05-03T21:34:57.879Z,3.20
2018-05-03T21:37:25.377Z,3.20
2018-05-03T21:39:53.131Z,3.63
2018-05-03T21:42:20.696Z,4.97
2018-05-03T21:44:48.649Z,5.27
2018-05-03T21:47:16.419Z,2.93
2018-05-03T21:49:44.190Z,4.10
2018-05-03T21:52:11.688Z,3.30
2018-05-03T21:54:39.397Z,3.50
2018-05-03T21:57:07.786Z,3.03
2018-05-03T21:59:35.287Z,3.80
2018-05-03T22:02:03.009Z,3.37
2018-05-03T22:04:30.514Z,3.50
2018-05-03T22:06:58.014Z,3.60
2018-05-03T22:09:25.682Z,4.77
2018-05-03T22:11:53.186Z,3.57
2018-05-03T22:14:20.894Z,4.30
2018-05-03T22:16:48.398Z,4.23
2018-05-03T22:19:16.079Z,3.97
2018-05-03T22:21:43.582Z,4.17
2018-05-03T22:24:11.084Z,4.13
2018-05-03T22:26:38.797Z,4.00
2018-05-03T22:29:06.293Z,3.97
2018-05-03T22:31:34.058Z,4.20
2018-05-03T22:34:01.478Z,3.60
2018-05-03T22:36:28.983Z,3.60
2018-05-03T22:38:56.686Z,4.60
2018-05-03T22:41:24.454Z,3.63
2018-05-03T22:43:52.219Z,4.73
2018-05-03T22:46:19.722Z,4.47
2018-05-03T22:48:47.221Z,3.90
2018-05-03T22:51:14.890Z,5.30
2018-05-03T22:53:42.380Z,4.30
2018-05-03T22:56:09.884Z,4.97
2018-05-03T22:58:37.566Z,5.70
2018-05-03T23:01:05.334Z,5.10
2018-05-03T23:03:32.830Z,5.17
2018-05-03T23:06:00.563Z,4.43
2018-05-03T23:08:28.050Z,3.37
2018-05-03T23:10:55.556Z,3.40
2018-05-03T23:13:23.182Z,3.97
2018-05-03T23:15:50.687Z,4.60
2018-05-03T23:18:18.446Z,3.77
2018-05-03T23:20:45.954Z,3.33
2018-05-03T23:23:13.670Z,3.70
2018-05-03T23:25:41.170Z,3.50
2018-05-03T23:28:08.898Z,3.27
2018-05-03T23:30:36.424Z,3.40
2018-05-03T23:33:03.975Z,3.77
2018-05-03T23:35:31.566Z,3.63
2018-05-03T23:37:59.332Z,4.00
2018-05-03T23:40:27.037Z,3.37
2018-05-03T23:42:54.731Z,3.53
2018-05-03T23:45:22.288Z,4.20
2018-05-03T23:47:49.790Z,4.47
2018-05-03T23:50:17.389Z,3.23
2018-05-03T23:52:44.889Z,3.23
2018-05-03T23:55:12.388Z,3.27
2018-05-03T23:57:39.893Z,4.50
